sensor_id;sensor_type;location;lat;lon;timestamp;P1;durP1;ratioP1;P2;durP2;ratioP2
19179;SDS011;9722;48.754;8.868;2022-09-13T00:01:43;1.60;;;1.50;;
19179;SDS011;9722;48.754;8.868;2022-09-13T00:05:04;3.10;;;1.53;;
19179;SDS011;9722;48.754;8.868;2022-09-13T00:08:25;1.50;;;1.40;;
19179;SDS011;9722;48.754;8.868;2022-09-13T00:11:45;1.70;;;1.60;;
19179;SDS011;9722;48.754;8.868;2022-09-13T00:15:06;1.73;;;1.63;;
19179;SDS011;9722;48.754;8.868;2022-09-13T00:18:26;2.83;;;1.70;;
19179;SDS011;9722;48.754;8.868;2022-09-13T00:21:47;1.67;;;1.57;;
19179;SDS011;9722;48.754;8.868;2022-09-13T00:25:08;1.70;;;1.60;;
19179;SDS011;9722;48.754;8.868;2022-09-13T00:28:28;1.50;;;1.40;;
19179;SDS011;9722;48.754;8.868;2022-09-13T00:31:49;2.33;;;1.40;;
19179;SDS011;9722;48.754;8.868;2022-09-13T00:35:09;1.60;;;1.50;;
19179;SDS011;9722;48.754;8.868;2022-09-13T00:38:30;1.20;;;1.20;;
19179;SDS011;9722;48.754;8.868;2022-09-13T00:41:51;1.40;;;1.30;;
19179;SDS011;9722;48.754;8.868;2022-09-13T00:48:37;2.47;;;1.53;;
19179;SDS011;9722;48.754;8.868;2022-09-13T00:51:58;1.17;;;1.17;;
19179;SDS011;9722;48.754;8.868;2022-09-13T00:55:26;1.60;;;1.50;;
19179;SDS011;9722;48.754;8.868;2022-09-13T00:58:56;1.53;;;1.43;;
19179;SDS011;9722;48.754;8.868;2022-09-13T01:02:23;4.10;;;1.57;;
19179;SDS011;9722;48.754;8.868;2022-09-13T01:05:51;1.40;;;1.30;;
19179;SDS011;9722;48.754;8.868;2022-09-13T01:09:16;1.57;;;1.47;;
19179;SDS011;9722;48.754;8.868;2022-09-13T01:16:04;2.37;;;1.10;;
19179;SDS011;9722;48.754;8.868;2022-09-13T01:19:25;1.70;;;1.60;;
19179;SDS011;9722;48.754;8.868;2022-09-13T01:26:55;2.03;;;1.63;;
19179;SDS011;9722;48.754;8.868;2022-09-13T01:30:39;1.73;;;1.57;;
19179;SDS011;9722;48.754;8.868;2022-09-13T01:34:18;1.63;;;1.53;;
19179;SDS011;9722;48.754;8.868;2022-09-13T01:38:11;2.17;;;1.60;;
19179;SDS011;9722;48.754;8.868;2022-09-13T01:41:51;3.63;;;1.50;;
19179;SDS011;9722;48.754;8.868;2022-09-13T01:48:53;2.33;;;1.53;;
19179;SDS011;9722;48.754;8.868;2022-09-13T01:52:29;2.43;;;1.40;;
19179;SDS011;9722;48.754;8.868;2022-09-13T01:56:14;1.50;;;1.40;;
19179;SDS011;9722;48.754;8.868;2022-09-13T01:59:38;1.67;;;1.57;;
19179;SDS011;9722;48.754;8.868;2022-09-13T02:03:13;2.00;;;1.50;;
19179;SDS011;9722;48.754;8.868;2022-09-13T02:06:49;1.70;;;1.50;;
19179;SDS011;9722;48.754;8.868;2022-09-13T02:10:27;1.80;;;1.70;;
19179;SDS011;9722;48.754;8.868;2022-09-13T02:17:22;2.00;;;1.80;;
19179;SDS011;9722;48.754;8.868;2022-09-13T02:20:47;3.73;;;2.47;;
19179;SDS011;9722;48.754;8.868;2022-09-13T02:24:13;2.73;;;1.97;;
19179;SDS011;9722;48.754;8.868;2022-09-13T02:27:38;2.30;;;1.60;;
19179;SDS011;9722;48.754;8.868;2022-09-13T02:31:03;1.50;;;1.40;;
19179;SDS011;9722;48.754;8.868;2022-09-13T02:34:33;1.40;;;1.30;;
19179;SDS011;9722;48.754;8.868;2022-09-13T02:38:03;1.87;;;1.77;;
19179;SDS011;9722;48.754;8.868;2022-09-13T02:41:31;2.73;;;1.70;;
19179;SDS011;9722;48.754;8.868;2022-09-13T02:45:07;1.43;;;1.33;;
19179;SDS011;9722;48.754;8.868;2022-09-13T02:48:37;1.93;;;1.70;;
19179;SDS011;9722;48.754;8.868;2022-09-13T02:52:23;1.73;;;1.63;;
19179;SDS011;9722;48.754;8.868;2022-09-13T02:59:44;1.53;;;1.43;;
19179;SDS011;9722;48.754;8.868;2022-09-13T03:03:07;1.60;;;1.50;;
19179;SDS011;9722;48.754;8.868;2022-09-13T03:06:31;2.10;;;1.77;;
19179;SDS011;9722;48.754;8.868;2022-09-13T03:09:55;1.80;;;1.70;;
19179;SDS011;9722;48.754;8.868;2022-09-13T03:21:18;1.37;;;1.33;;
19179;SDS011;9722;48.754;8.868;2022-09-13T03:36:04;1.80;;;1.70;;
19179;SDS011;9722;48.754;8.868;2022-09-13T03:39:51;1.70;;;1.60;;
19179;SDS011;9722;48.754;8.868;2022-09-13T03:46:55;1.57;;;1.47;;
19179;SDS011;9722;48.754;8.868;2022-09-13T03:50:19;2.70;;;1.40;;
19179;SDS011;9722;48.754;8.868;2022-09-13T03:53:45;1.93;;;1.83;;
19179;SDS011;9722;48.754;8.868;2022-09-13T03:57:13;1.50;;;1.40;;
19179;SDS011;9722;48.754;8.868;2022-09-13T04:00:35;2.23;;;1.70;;
19179;SDS011;9722;48.754;8.868;2022-09-13T04:03:56;1.80;;;1.63;;
19179;SDS011;9722;48.754;8.868;2022-09-13T04:07:18;2.03;;;1.67;;
19179;SDS011;9722;48.754;8.868;2022-09-13T04:10:40;1.73;;;1.63;;
19179;SDS011;9722;48.754;8.868;2022-09-13T04:14:01;3.33;;;1.60;;
19179;SDS011;9722;48.754;8.868;2022-09-13T04:17:22;3.77;;;2.00;;
19179;SDS011;9722;48.754;8.868;2022-09-13T04:20:43;1.70;;;1.60;;
19179;SDS011;9722;48.754;8.868;2022-09-13T04:24:03;2.07;;;1.97;;
19179;SDS011;9722;48.754;8.868;2022-09-13T04:27:24;3.03;;;1.50;;
19179;SDS011;9722;48.754;8.868;2022-09-13T04:30:45;1.60;;;1.50;;
19179;SDS011;9722;48.754;8.868;2022-09-13T04:34:08;2.97;;;2.00;;
19179;SDS011;9722;48.754;8.868;2022-09-13T04:37:29;4.53;;;1.67;;
19179;SDS011;9722;48.754;8.868;2022-09-13T04:40:53;2.17;;;1.90;;
19179;SDS011;9722;48.754;8.868;2022-09-13T04:44:15;2.77;;;1.60;;
19179;SDS011;9722;48.754;8.868;2022-09-13T04:47:36;2.00;;;1.70;;
19179;SDS011;9722;48.754;8.868;2022-09-13T04:51:01;2.50;;;1.50;;
19179;SDS011;9722;48.754;8.868;2022-09-13T04:54:24;1.80;;;1.70;;
19179;SDS011;9722;48.754;8.868;2022-09-13T04:57:46;5.03;;;1.97;;
19179;SDS011;9722;48.754;8.868;2022-09-13T05:01:07;1.97;;;1.87;;
19179;SDS011;9722;48.754;8.868;2022-09-13T05:04:28;3.63;;;1.77;;
19179;SDS011;9722;48.754;8.868;2022-09-13T05:07:49;2.03;;;1.77;;
19179;SDS011;9722;48.754;8.868;2022-09-13T05:11:10;3.33;;;1.80;;
19179;SDS011;9722;48.754;8.868;2022-09-13T05:14:30;1.97;;;1.87;;
19179;SDS011;9722;48.754;8.868;2022-09-13T05:17:51;2.10;;;1.97;;
19179;SDS011;9722;48.754;8.868;2022-09-13T05:21:11;3.23;;;1.90;;
19179;SDS011;9722;48.754;8.868;2022-09-13T05:24:32;3.70;;;2.20;;
19179;SDS011;9722;48.754;8.868;2022-09-13T05:27:53;1.90;;;1.80;;
19179;SDS011;9722;48.754;8.868;2022-09-13T05:31:17;2.20;;;2.10;;
19179;SDS011;9722;48.754;8.868;2022-09-13T05:34:40;2.30;;;2.10;;
19179;SDS011;9722;48.754;8.868;2022-09-13T05:38:01;3.10;;;2.07;;
19179;SDS011;9722;48.754;8.868;2022-09-13T05:41:21;3.17;;;2.00;;
19179;SDS011;9722;48.754;8.868;2022-09-13T05:44:42;2.30;;;2.10;;
19179;SDS011;9722;48.754;8.868;2022-09-13T05:48:03;3.43;;;2.60;;
19179;SDS011;9722;48.754;8.868;2022-09-13T05:51:23;2.40;;;2.20;;
19179;SDS011;9722;48.754;8.868;2022-09-13T05:54:45;2.20;;;2.00;;
19179;SDS011;9722;48.754;8.868;2022-09-13T05:58:05;2.03;;;1.83;;
19179;SDS011;9722;48.754;8.868;2022-09-13T06:01:26;3.47;;;1.83;;
19179;SDS011;9722;48.754;8.868;2022-09-13T06:04:48;1.77;;;1.67;;
19179;SDS011;9722;48.754;8.868;2022-09-13T06:08:09;1.77;;;1.67;;
19179;SDS011;9722;48.754;8.868;2022-09-13T06:11:30;8.00;;;1.90;;
19179;SDS011;9722;48.754;8.868;2022-09-13T06:14:50;2.53;;;2.23;;
19179;SDS011;9722;48.754;8.868;2022-09-13T06:18:11;2.17;;;1.97;;
19179;SDS011;9722;48.754;8.868;2022-09-13T06:21:31;1.97;;;1.70;;
19179;SDS011;9722;48.754;8.868;2022-09-13T06:24:52;2.07;;;1.97;;
19179;SDS011;9722;48.754;8.868;2022-09-13T06:28:12;2.00;;;1.90;;
19179;SDS011;9722;48.754;8.868;2022-09-13T06:31:33;3.10;;;2.07;;
19179;SDS011;9722;48.754;8.868;2022-09-13T06:34:53;2.07;;;1.60;;
19179;SDS011;9722;48.754;8.868;2022-09-13T06:38:14;2.03;;;1.93;;
19179;SDS011;9722;48.754;8.868;2022-09-13T06:41:35;1.60;;;1.50;;
19179;SDS011;9722;48.754;8.868;2022-09-13T06:44:56;2.00;;;1.60;;
19179;SDS011;9722;48.754;8.868;2022-09-13T06:48:16;3.10;;;1.80;;
19179;SDS011;9722;48.754;8.868;2022-09-13T06:51:37;2.00;;;1.57;;
19179;SDS011;9722;48.754;8.868;2022-09-13T06:54:57;2.43;;;1.40;;
19179;SDS011;9722;48.754;8.868;2022-09-13T06:58:18;1.60;;;1.50;;
19179;SDS011;9722;48.754;8.868;2022-09-13T07:01:40;4.73;;;1.77;;
19179;SDS011;9722;48.754;8.868;2022-09-13T07:05:02;3.70;;;1.90;;
19179;SDS011;9722;48.754;8.868;2022-09-13T07:08:22;1.40;;;1.30;;
19179;SDS011;9722;48.754;8.868;2022-09-13T07:11:43;1.47;;;1.37;;
19179;SDS011;9722;48.754;8.868;2022-09-13T07:15:06;1.30;;;1.20;;
19179;SDS011;9722;48.754;8.868;2022-09-13T07:18:27;1.30;;;1.30;;
19179;SDS011;9722;48.754;8.868;2022-09-13T07:21:47;1.63;;;1.53;;
19179;SDS011;9722;48.754;8.868;2022-09-13T07:25:09;1.50;;;1.40;;
19179;SDS011;9722;48.754;8.868;2022-09-13T07:28:30;1.23;;;1.20;;
19179;SDS011;9722;48.754;8.868;2022-09-13T07:31:54;1.27;;;1.13;;
19179;SDS011;9722;48.754;8.868;2022-09-13T07:35:15;2.20;;;1.23;;
19179;SDS011;9722;48.754;8.868;2022-09-13T07:38:36;2.17;;;1.20;;
19179;SDS011;9722;48.754;8.868;2022-09-13T07:41:59;1.40;;;1.30;;
19179;SDS011;9722;48.754;8.868;2022-09-13T07:45:19;1.10;;;1.10;;
19179;SDS011;9722;48.754;8.868;2022-09-13T07:48:43;2.80;;;1.50;;
19179;SDS011;9722;48.754;8.868;2022-09-13T07:52:04;2.13;;;1.20;;
19179;SDS011;9722;48.754;8.868;2022-09-13T07:55:25;1.10;;;1.00;;
19179;SDS011;9722;48.754;8.868;2022-09-13T07:58:46;2.40;;;1.20;;
19179;SDS011;9722;48.754;8.868;2022-09-13T08:02:08;1.10;;;1.10;;
19179;SDS011;9722;48.754;8.868;2022-09-13T08:05:29;1.40;;;1.17;;
19179;SDS011;9722;48.754;8.868;2022-09-13T08:08:49;1.10;;;1.00;;
19179;SDS011;9722;48.754;8.868;2022-09-13T08:12:10;1.60;;;1.00;;
19179;SDS011;9722;48.754;8.868;2022-09-13T08:15:31;2.43;;;1.07;;
19179;SDS011;9722;48.754;8.868;2022-09-13T08:18:53;1.57;;;0.90;;
19179;SDS011;9722;48.754;8.868;2022-09-13T08:22:14;1.00;;;1.00;;
19179;SDS011;9722;48.754;8.868;2022-09-13T08:25:35;1.20;;;1.10;;
19179;SDS011;9722;48.754;8.868;2022-09-13T08:28:58;2.40;;;1.20;;
19179;SDS011;9722;48.754;8.868;2022-09-13T08:32:20;3.50;;;1.00;;
19179;SDS011;9722;48.754;8.868;2022-09-13T08:35:48;1.40;;;0.97;;
19179;SDS011;9722;48.754;8.868;2022-09-13T08:39:10;1.53;;;1.07;;
19179;SDS011;9722;48.754;8.868;2022-09-13T08:42:45;1.53;;;1.13;;
19179;SDS011;9722;48.754;8.868;2022-09-13T08:49:54;1.00;;;0.90;;
19179;SDS011;9722;48.754;8.868;2022-09-13T08:53:27;1.50;;;0.90;;
19179;SDS011;9722;48.754;8.868;2022-09-13T09:00:24;1.00;;;0.87;;
19179;SDS011;9722;48.754;8.868;2022-09-13T09:03:53;0.60;;;0.60;;
19179;SDS011;9722;48.754;8.868;2022-09-13T09:07:20;1.03;;;0.67;;
19179;SDS011;9722;48.754;8.868;2022-09-13T09:10:45;2.43;;;0.80;;
19179;SDS011;9722;48.754;8.868;2022-09-13T09:17:56;0.80;;;0.60;;
19179;SDS011;9722;48.754;8.868;2022-09-13T09:21:17;0.60;;;0.60;;
19179;SDS011;9722;48.754;8.868;2022-09-13T09:24:38;0.87;;;0.60;;
19179;SDS011;9722;48.754;8.868;2022-09-13T09:27:59;0.60;;;0.60;;
19179;SDS011;9722;48.754;8.868;2022-09-13T09:31:30;0.50;;;0.50;;
19179;SDS011;9722;48.754;8.868;2022-09-13T09:35:17;1.13;;;0.77;;
19179;SDS011;9722;48.754;8.868;2022-09-13T09:38:58;2.00;;;0.70;;
19179;SDS011;9722;48.754;8.868;2022-09-13T09:42:23;1.23;;;0.60;;
19179;SDS011;9722;48.754;8.868;2022-09-13T09:45:47;0.50;;;0.50;;
19179;SDS011;9722;48.754;8.868;2022-09-13T09:49:20;8.63;;;0.87;;
19179;SDS011;9722;48.754;8.868;2022-09-13T09:53:12;0.90;;;0.90;;
19179;SDS011;9722;48.754;8.868;2022-09-13T09:56:52;0.82;;;0.60;;
19179;SDS011;9722;48.754;8.868;2022-09-13T10:00:14;0.85;;;0.75;;
19179;SDS011;9722;48.754;8.868;2022-09-13T10:03:35;1.42;;;0.52;;
19179;SDS011;9722;48.754;8.868;2022-09-13T10:07:09;0.80;;;0.70;;
19179;SDS011;9722;48.754;8.868;2022-09-13T10:10:51;2.50;;;1.40;;
19179;SDS011;9722;48.754;8.868;2022-09-13T10:14:26;2.38;;;2.28;;
19179;SDS011;9722;48.754;8.868;2022-09-13T10:18:13;3.88;;;3.58;;
19179;SDS011;9722;48.754;8.868;2022-09-13T10:21:35;5.40;;;5.10;;
19179;SDS011;9722;48.754;8.868;2022-09-13T10:28:54;0.77;;;0.60;;
19179;SDS011;9722;48.754;8.868;2022-09-13T10:32:18;4.85;;;4.55;;
19179;SDS011;9722;48.754;8.868;2022-09-13T10:35:40;8.50;;;7.78;;
19179;SDS011;9722;48.754;8.868;2022-09-13T10:39:07;6.45;;;5.93;;
19179;SDS011;9722;48.754;8.868;2022-09-13T10:42:36;8.63;;;7.93;;
19179;SDS011;9722;48.754;8.868;2022-09-13T10:45:57;8.73;;;8.13;;
19179;SDS011;9722;48.754;8.868;2022-09-13T10:57:30;3.88;;;3.58;;
19179;SDS011;9722;48.754;8.868;2022-09-13T11:01:02;12.60;;;11.38;;
19179;SDS011;9722;48.754;8.868;2022-09-13T11:15:43;4.22;;;2.97;;
19179;SDS011;9722;48.754;8.868;2022-09-13T11:26:56;2.85;;;2.65;;
19179;SDS011;9722;48.754;8.868;2022-09-13T11:34:37;1.00;;;0.82;;
19179;SDS011;9722;48.754;8.868;2022-09-13T11:45:24;2.67;;;2.47;;
19179;SDS011;9722;48.754;8.868;2022-09-13T11:52:44;3.27;;;2.50;;
19179;SDS011;9722;48.754;8.868;2022-09-13T11:56:22;0.87;;;0.87;;
19179;SDS011;9722;48.754;8.868;2022-09-13T11:59:55;1.50;;;1.40;;
19179;SDS011;9722;48.754;8.868;2022-09-13T12:07:18;1.20;;;0.90;;
19179;SDS011;9722;48.754;8.868;2022-09-13T12:11:09;2.23;;;0.50;;
19179;SDS011;9722;48.754;8.868;2022-09-13T12:14:37;1.30;;;0.80;;
19179;SDS011;9722;48.754;8.868;2022-09-13T12:18:12;1.33;;;1.00;;
19179;SDS011;9722;48.754;8.868;2022-09-13T12:21:37;1.43;;;1.10;;
19179;SDS011;9722;48.754;8.868;2022-09-13T12:25:06;1.00;;;0.90;;
19179;SDS011;9722;48.754;8.868;2022-09-13T12:28:44;1.80;;;1.30;;
19179;SDS011;9722;48.754;8.868;2022-09-13T12:32:10;1.65;;;1.55;;
19179;SDS011;9722;48.754;8.868;2022-09-13T12:35:34;2.05;;;1.50;;
19179;SDS011;9722;48.754;8.868;2022-09-13T12:39:10;1.80;;;1.70;;
19179;SDS011;9722;48.754;8.868;2022-09-13T12:50:12;2.83;;;0.40;;
19179;SDS011;9722;48.754;8.868;2022-09-13T13:04:33;4.63;;;1.13;;
19179;SDS011;9722;48.754;8.868;2022-09-13T13:07:56;5.60;;;1.15;;
19179;SDS011;9722;48.754;8.868;2022-09-13T13:11:23;1.70;;;1.10;;
19179;SDS011;9722;48.754;8.868;2022-09-13T13:14:46;3.30;;;1.23;;
19179;SDS011;9722;48.754;8.868;2022-09-13T13:18:22;2.13;;;1.15;;
19179;SDS011;9722;48.754;8.868;2022-09-13T13:21:48;1.63;;;1.02;;
19179;SDS011;9722;48.754;8.868;2022-09-13T13:32:31;4.85;;;0.95;;
19179;SDS011;9722;48.754;8.868;2022-09-13T13:35:52;1.98;;;1.70;;
19179;SDS011;9722;48.754;8.868;2022-09-13T13:42:46;1.57;;;1.10;;
19179;SDS011;9722;48.754;8.868;2022-09-13T13:52:54;2.55;;;0.90;;
19179;SDS011;9722;48.754;8.868;2022-09-13T13:56:30;2.33;;;1.17;;
19179;SDS011;9722;48.754;8.868;2022-09-13T14:03:40;1.80;;;0.70;;
19179;SDS011;9722;48.754;8.868;2022-09-13T14:07:33;2.50;;;1.45;;
19179;SDS011;9722;48.754;8.868;2022-09-13T14:11:19;1.52;;;0.75;;
19179;SDS011;9722;48.754;8.868;2022-09-13T14:15:19;2.10;;;1.23;;
19179;SDS011;9722;48.754;8.868;2022-09-13T14:22:38;2.17;;;1.90;;
19179;SDS011;9722;48.754;8.868;2022-09-13T14:25:59;1.03;;;0.63;;
19179;SDS011;9722;48.754;8.868;2022-09-13T14:29:20;0.57;;;0.57;;
19179;SDS011;9722;48.754;8.868;2022-09-13T14:32:47;1.77;;;0.80;;
19179;SDS011;9722;48.754;8.868;2022-09-13T14:36:17;2.53;;;0.70;;
19179;SDS011;9722;48.754;8.868;2022-09-13T14:39:39;1.70;;;0.67;;
19179;SDS011;9722;48.754;8.868;2022-09-13T14:43:28;0.40;;;0.40;;
19179;SDS011;9722;48.754;8.868;2022-09-13T14:46:51;1.40;;;0.53;;
19179;SDS011;9722;48.754;8.868;2022-09-13T14:50:24;0.47;;;0.47;;
19179;SDS011;9722;48.754;8.868;2022-09-13T14:53:51;0.50;;;0.50;;
19179;SDS011;9722;48.754;8.868;2022-09-13T14:57:21;1.80;;;0.80;;
19179;SDS011;9722;48.754;8.868;2022-09-13T15:04:19;2.53;;;2.33;;
19179;SDS011;9722;48.754;8.868;2022-09-13T15:07:42;6.03;;;3.90;;
19179;SDS011;9722;48.754;8.868;2022-09-13T15:11:03;3.13;;;2.40;;
19179;SDS011;9722;48.754;8.868;2022-09-13T15:14:27;1.83;;;0.73;;
19179;SDS011;9722;48.754;8.868;2022-09-13T15:17:54;4.23;;;0.87;;
19179;SDS011;9722;48.754;8.868;2022-09-13T15:21:17;1.67;;;0.90;;
19179;SDS011;9722;48.754;8.868;2022-09-13T15:24:41;3.33;;;0.77;;
19179;SDS011;9722;48.754;8.868;2022-09-13T15:28:05;2.30;;;1.30;;
19179;SDS011;9722;48.754;8.868;2022-09-13T15:31:42;3.40;;;3.10;;
19179;SDS011;9722;48.754;8.868;2022-09-13T15:35:14;4.93;;;4.07;;
19179;SDS011;9722;48.754;8.868;2022-09-13T15:42:20;5.93;;;4.43;;
19179;SDS011;9722;48.754;8.868;2022-09-13T15:45:41;7.47;;;6.47;;
19179;SDS011;9722;48.754;8.868;2022-09-13T15:49:01;5.70;;;5.30;;
19179;SDS011;9722;48.754;8.868;2022-09-13T15:52:24;6.43;;;5.93;;
19179;SDS011;9722;48.754;8.868;2022-09-13T15:55:45;7.73;;;7.03;;
19179;SDS011;9722;48.754;8.868;2022-09-13T15:59:05;7.97;;;7.27;;
19179;SDS011;9722;48.754;8.868;2022-09-13T16:02:27;7.73;;;7.20;;
19179;SDS011;9722;48.754;8.868;2022-09-13T16:05:51;8.57;;;7.80;;
19179;SDS011;9722;48.754;8.868;2022-09-13T16:09:19;9.53;;;8.63;;
19179;SDS011;9722;48.754;8.868;2022-09-13T16:12:42;7.00;;;6.30;;
19179;SDS011;9722;48.754;8.868;2022-09-13T16:16:03;10.60;;;9.60;;
19179;SDS011;9722;48.754;8.868;2022-09-13T16:19:24;9.87;;;8.93;;
19179;SDS011;9722;48.754;8.868;2022-09-13T16:22:44;10.13;;;8.23;;
19179;SDS011;9722;48.754;8.868;2022-09-13T16:26:05;7.20;;;6.53;;
19179;SDS011;9722;48.754;8.868;2022-09-13T16:29:26;8.30;;;7.60;;
19179;SDS011;9722;48.754;8.868;2022-09-13T16:32:47;7.57;;;5.23;;
19179;SDS011;9722;48.754;8.868;2022-09-13T16:36:11;8.57;;;7.87;;
19179;SDS011;9722;48.754;8.868;2022-09-13T16:39:31;3.83;;;1.43;;
19179;SDS011;9722;48.754;8.868;2022-09-13T16:42:52;3.57;;;3.23;;
19179;SDS011;9722;48.754;8.868;2022-09-13T16:46:13;7.70;;;6.03;;
19179;SDS011;9722;48.754;8.868;2022-09-13T16:49:34;5.33;;;4.40;;
19179;SDS011;9722;48.754;8.868;2022-09-13T16:52:55;11.40;;;9.30;;
19179;SDS011;9722;48.754;8.868;2022-09-13T16:56:16;11.07;;;8.43;;
19179;SDS011;9722;48.754;8.868;2022-09-13T16:59:38;13.37;;;11.67;;
19179;SDS011;9722;48.754;8.868;2022-09-13T17:03:00;11.97;;;10.97;;
19179;SDS011;9722;48.754;8.868;2022-09-13T17:06:21;14.63;;;12.67;;
19179;SDS011;9722;48.754;8.868;2022-09-13T17:09:43;12.70;;;9.30;;
19179;SDS011;9722;48.754;8.868;2022-09-13T17:13:03;20.10;;;15.90;;
19179;SDS011;9722;48.754;8.868;2022-09-13T17:16:26;6.30;;;2.60;;
19179;SDS011;9722;48.754;8.868;2022-09-13T17:19:47;1.53;;;1.00;;
19179;SDS011;9722;48.754;8.868;2022-09-13T17:23:08;18.70;;;16.40;;
19179;SDS011;9722;48.754;8.868;2022-09-13T17:26:28;6.70;;;4.20;;
19179;SDS011;9722;48.754;8.868;2022-09-13T17:29:50;7.67;;;6.97;;
19179;SDS011;9722;48.754;8.868;2022-09-13T17:33:10;19.53;;;17.63;;
19179;SDS011;9722;48.754;8.868;2022-09-13T17:36:31;17.43;;;15.13;;
19179;SDS011;9722;48.754;8.868;2022-09-13T17:39:52;12.27;;;9.97;;
19179;SDS011;9722;48.754;8.868;2022-09-13T17:43:12;3.80;;;2.00;;
19179;SDS011;9722;48.754;8.868;2022-09-13T17:46:33;2.40;;;2.20;;
19179;SDS011;9722;48.754;8.868;2022-09-13T17:49:53;7.13;;;6.50;;
19179;SDS011;9722;48.754;8.868;2022-09-13T17:53:14;5.23;;;3.70;;
19179;SDS011;9722;48.754;8.868;2022-09-13T17:56:36;2.73;;;2.30;;
19179;SDS011;9722;48.754;8.868;2022-09-13T18:00:03;6.63;;;4.13;;
19179;SDS011;9722;48.754;8.868;2022-09-13T18:03:26;8.00;;;7.20;;
19179;SDS011;9722;48.754;8.868;2022-09-13T18:06:48;16.23;;;11.93;;
19179;SDS011;9722;48.754;8.868;2022-09-13T18:10:10;9.47;;;6.93;;
19179;SDS011;9722;48.754;8.868;2022-09-13T18:13:30;5.53;;;4.23;;
19179;SDS011;9722;48.754;8.868;2022-09-13T18:16:51;7.63;;;6.97;;
19179;SDS011;9722;48.754;8.868;2022-09-13T18:20:14;4.80;;;4.37;;
19179;SDS011;9722;48.754;8.868;2022-09-13T18:23:35;8.83;;;7.63;;
19179;SDS011;9722;48.754;8.868;2022-09-13T18:26:55;3.83;;;3.50;;
19179;SDS011;9722;48.754;8.868;2022-09-13T18:30:16;15.80;;;13.73;;
19179;SDS011;9722;48.754;8.868;2022-09-13T18:33:36;8.57;;;7.83;;
19179;SDS011;9722;48.754;8.868;2022-09-13T18:36:57;11.87;;;10.13;;
19179;SDS011;9722;48.754;8.868;2022-09-13T18:40:17;5.80;;;4.47;;
19179;SDS011;9722;48.754;8.868;2022-09-13T18:43:39;9.70;;;7.03;;
19179;SDS011;9722;48.754;8.868;2022-09-13T18:47:00;12.17;;;10.57;;
19179;SDS011;9722;48.754;8.868;2022-09-13T18:50:22;10.83;;;9.20;;
19179;SDS011;9722;48.754;8.868;2022-09-13T18:53:43;20.57;;;16.47;;
19179;SDS011;9722;48.754;8.868;2022-09-13T18:57:04;46.67;;;31.87;;
19179;SDS011;9722;48.754;8.868;2022-09-13T19:00:25;37.57;;;27.70;;
19179;SDS011;9722;48.754;8.868;2022-09-13T19:03:54;10.50;;;9.13;;
19179;SDS011;9722;48.754;8.868;2022-09-13T19:07:16;12.13;;;9.83;;
19179;SDS011;9722;48.754;8.868;2022-09-13T19:10:37;10.93;;;8.70;;
19179;SDS011;9722;48.754;8.868;2022-09-13T19:13:57;47.00;;;33.13;;
19179;SDS011;9722;48.754;8.868;2022-09-13T19:17:18;40.90;;;28.87;;
19179;SDS011;9722;48.754;8.868;2022-09-13T19:20:38;25.93;;;21.37;;
19179;SDS011;9722;48.754;8.868;2022-09-13T19:23:59;41.70;;;29.50;;
19179;SDS011;9722;48.754;8.868;2022-09-13T19:27:21;45.57;;;30.70;;
19179;SDS011;9722;48.754;8.868;2022-09-13T19:30:41;42.83;;;30.40;;
19179;SDS011;9722;48.754;8.868;2022-09-13T19:34:02;23.97;;;15.93;;
19179;SDS011;9722;48.754;8.868;2022-09-13T19:37:25;22.33;;;16.90;;
19179;SDS011;9722;48.754;8.868;2022-09-13T19:40:55;29.87;;;21.33;;
19179;SDS011;9722;48.754;8.868;2022-09-13T19:44:17;12.83;;;11.00;;
19179;SDS011;9722;48.754;8.868;2022-09-13T19:47:38;13.33;;;12.03;;
19179;SDS011;9722;48.754;8.868;2022-09-13T19:51:02;9.57;;;8.30;;
19179;SDS011;9722;48.754;8.868;2022-09-13T19:54:24;35.87;;;25.07;;
19179;SDS011;9722;48.754;8.868;2022-09-13T19:57:45;24.67;;;18.47;;
19179;SDS011;9722;48.754;8.868;2022-09-13T20:01:08;15.07;;;11.40;;
19179;SDS011;9722;48.754;8.868;2022-09-13T20:04:30;14.83;;;7.23;;
19179;SDS011;9722;48.754;8.868;2022-09-13T20:07:50;24.23;;;18.00;;
19179;SDS011;9722;48.754;8.868;2022-09-13T20:11:11;7.57;;;3.60;;
19179;SDS011;9722;48.754;8.868;2022-09-13T20:14:36;9.23;;;8.10;;
19179;SDS011;9722;48.754;8.868;2022-09-13T20:17:58;12.20;;;9.03;;
19179;SDS011;9722;48.754;8.868;2022-09-13T20:21:18;12.93;;;9.57;;
19179;SDS011;9722;48.754;8.868;2022-09-13T20:24:39;3.07;;;2.50;;
19179;SDS011;9722;48.754;8.868;2022-09-13T20:28:00;3.57;;;3.27;;
19179;SDS011;9722;48.754;8.868;2022-09-13T20:31:20;9.90;;;8.40;;
19179;SDS011;9722;48.754;8.868;2022-09-13T20:34:42;2.63;;;2.40;;
19179;SDS011;9722;48.754;8.868;2022-09-13T20:38:02;8.77;;;6.27;;
19179;SDS011;9722;48.754;8.868;2022-09-13T20:41:24;6.70;;;5.87;;
19179;SDS011;9722;48.754;8.868;2022-09-13T20:44:45;7.20;;;5.77;;
19179;SDS011;9722;48.754;8.868;2022-09-13T20:48:06;12.40;;;10.77;;
19179;SDS011;9722;48.754;8.868;2022-09-13T20:51:27;13.07;;;11.60;;
19179;SDS011;9722;48.754;8.868;2022-09-13T20:54:47;14.27;;;12.77;;
19179;SDS011;9722;48.754;8.868;2022-09-13T20:58:08;14.93;;;10.63;;
19179;SDS011;9722;48.754;8.868;2022-09-13T21:01:29;3.13;;;2.17;;
19179;SDS011;9722;48.754;8.868;2022-09-13T21:04:50;16.57;;;12.20;;
19179;SDS011;9722;48.754;8.868;2022-09-13T21:08:14;12.87;;;10.20;;
19179;SDS011;9722;48.754;8.868;2022-09-13T21:11:54;9.30;;;8.37;;
19179;SDS011;9722;48.754;8.868;2022-09-13T21:15:15;9.03;;;8.13;;
19179;SDS011;9722;48.754;8.868;2022-09-13T21:18:36;11.23;;;7.60;;
19179;SDS011;9722;48.754;8.868;2022-09-13T21:21:57;4.13;;;3.30;;
19179;SDS011;9722;48.754;8.868;2022-09-13T21:25:17;6.30;;;3.80;;
19179;SDS011;9722;48.754;8.868;2022-09-13T21:28:38;4.00;;;2.80;;
19179;SDS011;9722;48.754;8.868;2022-09-13T21:32:01;1.77;;;1.30;;
19179;SDS011;9722;48.754;8.868;2022-09-13T21:35:22;1.77;;;1.60;;
19179;SDS011;9722;48.754;8.868;2022-09-13T21:38:42;5.60;;;3.57;;
19179;SDS011;9722;48.754;8.868;2022-09-13T21:42:03;2.93;;;1.77;;
19179;SDS011;9722;48.754;8.868;2022-09-13T21:45:24;7.47;;;5.53;;
19179;SDS011;9722;48.754;8.868;2022-09-13T21:48:45;8.47;;;7.20;;
19179;SDS011;9722;48.754;8.868;2022-09-13T21:52:07;3.77;;;3.47;;
19179;SDS011;9722;48.754;8.868;2022-09-13T21:55:27;3.37;;;1.97;;
19179;SDS011;9722;48.754;8.868;2022-09-13T21:58:50;7.47;;;6.13;;
19179;SDS011;9722;48.754;8.868;2022-09-13T22:02:12;3.30;;;1.97;;
19179;SDS011;9722;48.754;8.868;2022-09-13T22:05:33;2.27;;;2.07;;
19179;SDS011;9722;48.754;8.868;2022-09-13T22:08:54;2.17;;;2.00;;
19179;SDS011;9722;48.754;8.868;2022-09-13T22:12:16;2.90;;;2.53;;
19179;SDS011;9722;48.754;8.868;2022-09-13T22:15:37;2.40;;;2.20;;
19179;SDS011;9722;48.754;8.868;2022-09-13T22:19:02;5.17;;;4.67;;
19179;SDS011;9722;48.754;8.868;2022-09-13T22:22:33;7.93;;;5.40;;
19179;SDS011;9722;48.754;8.868;2022-09-13T22:25:54;6.10;;;5.60;;
19179;SDS011;9722;48.754;8.868;2022-09-13T22:29:14;5.07;;;3.33;;
19179;SDS011;9722;48.754;8.868;2022-09-13T22:32:35;8.23;;;4.67;;
19179;SDS011;9722;48.754;8.868;2022-09-13T22:35:57;4.67;;;4.27;;
19179;SDS011;9722;48.754;8.868;2022-09-13T22:39:19;2.80;;;2.60;;
19179;SDS011;9722;48.754;8.868;2022-09-13T22:42:39;4.37;;;3.30;;
19179;SDS011;9722;48.754;8.868;2022-09-13T22:46:04;1.70;;;1.47;;
19179;SDS011;9722;48.754;8.868;2022-09-13T22:49:26;3.47;;;2.83;;
19179;SDS011;9722;48.754;8.868;2022-09-13T22:52:47;3.10;;;2.10;;
19179;SDS011;9722;48.754;8.868;2022-09-13T22:56:10;2.00;;;1.77;;
19179;SDS011;9722;48.754;8.868;2022-09-13T22:59:33;3.40;;;1.73;;
19179;SDS011;9722;48.754;8.868;2022-09-13T23:02:53;4.30;;;2.80;;
19179;SDS011;9722;48.754;8.868;2022-09-13T23:06:14;3.30;;;2.67;;
19179;SDS011;9722;48.754;8.868;2022-09-13T23:09:39;2.70;;;1.90;;
19179;SDS011;9722;48.754;8.868;2022-09-13T23:13:00;5.70;;;2.13;;
19179;SDS011;9722;48.754;8.868;2022-09-13T23:16:22;5.30;;;3.20;;
19179;SDS011;9722;48.754;8.868;2022-09-13T23:19:47;4.60;;;4.20;;
19179;SDS011;9722;48.754;8.868;2022-09-13T23:23:08;1.90;;;1.80;;